Terminal Aerodrome Forecast
Issued by NWS

Home | Current Version | Previous Version | Text Only | Print | Product List | Glossary On
Versions: 1 2 3 4 5 6 7 8 9 10 11 12 13 14 15 16
000
FTUS46 KOTX 210520
TAFMWH
TAF
KMWH 210520Z 2106/2206 18007KT P6SM SCT120 BKN200
     FM211200 01008KT P6SM BKN100 OVC150
     FM211500 35009KT P6SM BKN050 OVC100
     FM212100 14004KT P6SM VCSH BKN050 OVC100
     FM220000 12006KT P6SM -SHRA BKN050 OVC100=

USA.gov is the U.S. government's official web portal to all federal, state and local government web resources and services.